Andover, Maine
Current Conditions -  °F | °C
As of 12:52 PM on Monday 26 Jan 2015 (Local Time) from KBML Reporting Station
Clear Clear  
Wind Chill: 11°   Ceiling: Unl
Heat Index: 11°   Visibility: 10mi
Dew Point: -7°   Wind: 3mph
Humidity: 44%   Direction: NA
Pressure: 30.05"   Gusts: NA
Location:  44.64°N, 70.75°W
Report Text: KBML 261752Z AUTO VRB03KT 10SM CLR M12/M22 A3005 RMK AO2 SLP208 T11171217 11117 21272 58017
Loading
Personal Weather Stations






























Interactive Weather Map New forecast layout! Learn more

10-Day Weather Forecast

Advertisements
Track Severe Weather on mobile